Time;durP1;ratioP1;P1;durP2;ratioP2;P2;SDS_P1;SDS_P2;PMS_P1;PMS_P2;Temp;Humidity;BMP_temperature;BMP_pressure;BME280_temperature;BME280_humidity;BME280_pressure;Samples;Min_cycle;Max_cycle;Signal;HPM_P1;HPM_P2
2021/12/25 00:00:36;;;;;;;23.30;15.98;;;;;;;0.80;100.00;97419.70;1748106;82;21066;-65
2021/12/25 00:03:03;;;;;;;24.72;16.62;;;;;;;0.79;100.00;97414.88;1749241;81;21043;-65
2021/12/25 00:05:30;;;;;;;24.30;15.68;;;;;;;0.81;100.00;97407.41;1752073;82;21006;-65
2021/12/25 00:07:57;;;;;;;20.27;15.13;;;;;;;0.90;100.00;97402.30;1746155;82;21125;-65
2021/12/25 00:10:24;;;;;;;23.38;15.90;;;;;;;0.95;100.00;97398.30;1747548;82;21443;-65
2021/12/25 00:12:53;;;;;;;23.70;16.42;;;;;;;0.99;100.00;97398.83;1751938;81;21027;-65
2021/12/25 00:15:18;;;;;;;20.32;14.60;;;;;;;0.97;100.00;97400.17;1750949;81;20992;-64
2021/12/25 00:17:45;;;;;;;22.27;15.05;;;;;;;1.00;100.00;97388.92;1749595;81;21055;-65
2021/12/25 00:20:11;;;;;;;22.52;14.87;;;;;;;1.07;100.00;97399.37;1750127;82;21007;-66
2021/12/25 00:22:39;;;;;;;16.90;13.58;;;;;;;1.13;100.00;97401.00;1752927;82;21090;-65
2021/12/25 00:25:06;;;;;;;20.95;14.28;;;;;;;1.15;100.00;97400.99;1747370;81;21481;-65
2021/12/25 00:27:51;;;;;;;18.65;13.70;;;;;;;1.15;100.00;97401.52;1747924;81;21059;-65
2021/12/25 00:30:23;;;;;;;17.70;12.98;;;;;;;1.19;100.00;97393.22;1749961;81;20999;-65
2021/12/25 00:32:53;;;;;;;20.68;13.18;;;;;;;1.27;100.00;97392.16;1748667;81;21047;-64
2021/12/25 00:35:16;;;;;;;20.55;13.40;;;;;;;1.34;100.00;97391.88;1750736;81;21020;-65
2021/12/25 00:37:43;;;;;;;17.55;12.37;;;;;;;1.35;100.00;97395.62;1752078;82;21025;-65
2021/12/25 00:40:10;;;;;;;18.95;13.22;;;;;;;1.35;100.00;97398.83;1751245;81;21007;-65
2021/12/25 00:42:37;;;;;;;16.35;12.00;;;;;;;1.38;100.00;97385.69;1727422;81;21490;-64
2021/12/25 00:45:04;;;;;;;18.90;12.78;;;;;;;1.46;100.00;97399.09;1750383;81;21007;-65
2021/12/25 00:47:31;;;;;;;18.32;13.00;;;;;;;1.52;100.00;97394.55;1748066;81;21047;-65
2021/12/25 00:49:58;;;;;;;18.10;13.85;;;;;;;1.55;100.00;97388.64;1748268;81;21636;-64
2021/12/25 00:52:24;;;;;;;19.90;12.80;;;;;;;1.53;100.00;97388.09;1749005;81;21018;-64
2021/12/25 00:54:51;;;;;;;17.55;13.65;;;;;;;1.54;100.00;97389.70;1745244;81;21000;-65
2021/12/25 00:57:18;;;;;;;19.45;13.30;;;;;;;1.58;100.00;97391.58;1752463;81;21066;-65
2021/12/25 00:59:44;;;;;;;16.23;11.97;;;;;;;1.63;100.00;97392.13;1751445;81;21067;-64
2021/12/25 01:02:11;;;;;;;18.12;13.38;;;;;;;1.63;100.00;97390.78;1753207;82;21086;-64
2021/12/25 01:04:37;;;;;;;16.93;12.55;;;;;;;1.60;100.00;97387.27;1750945;82;21106;-64
2021/12/25 01:07:03;;;;;;;16.67;11.97;;;;;;;1.62;100.00;97399.89;1748344;81;21042;-64
2021/12/25 01:09:31;;;;;;;14.90;11.15;;;;;;;1.68;100.00;97400.14;1752427;82;21036;-64
2021/12/25 01:12:00;;;;;;;15.68;12.00;;;;;;;1.72;100.00;97381.09;1750482;82;21235;-64
2021/12/25 01:14:39;;;;;;;15.60;11.88;;;;;;;1.75;100.00;97384.03;1751152;81;21039;-65
2021/12/25 01:17:25;;;;;;;14.95;10.85;;;;;;;1.75;100.00;97385.91;1742180;82;21121;-64
2021/12/25 01:30:19;;;;;;;12.82;9.13;;;;;;;2.09;100.00;97397.61;1751411;82;20992;-65
2021/12/25 01:38:00;;;;;;;13.05;8.83;;;;;;;2.34;100.00;97399.39;1746397;81;21464;-64
2021/12/25 01:49:04;;;;;;;10.60;7.35;;;;;;;2.59;100.00;97401.18;1751812;81;21565;-65
2021/12/25 01:51:32;;;;;;;11.57;7.50;;;;;;;2.64;100.00;97399.25;1746377;82;21044;-65
2021/12/25 01:53:59;;;;;;;10.23;6.92;;;;;;;2.74;100.00;97407.25;1744917;81;21165;-65
2021/12/25 01:56:26;;;;;;;10.15;7.35;;;;;;;2.78;100.00;97412.88;1752404;81;21047;-65
2021/12/25 01:58:53;;;;;;;;;;;;;;;2.82;100.00;97420.64;1753240;81;21561;-64
2021/12/25 02:01:19;;;;;;;12.30;7.00;;;;;;;2.90;100.00;97437.53;1743257;81;20142;-65
2021/12/25 02:03:47;;;;;;;9.85;7.00;;;;;;;2.90;100.00;97427.59;1724262;82;21497;-65
2021/12/25 02:06:13;;;;;;;9.40;6.50;;;;;;;2.91;100.00;97427.84;1753234;81;20992;-64
2021/12/25 02:08:42;;;;;;;11.35;6.80;;;;;;;2.95;100.00;97436.95;1741876;81;21067;-64
2021/12/25 02:11:10;;;;;;;10.00;6.62;;;;;;;3.00;100.00;97433.44;1750227;81;20980;-65
2021/12/25 02:13:40;;;;;;;8.90;6.17;;;;;;;3.01;100.00;97425.64;1763066;80;21063;-65
2021/12/25 02:16:13;;;;;;;9.50;6.58;;;;;;;3.00;100.00;97422.69;1760075;81;21534;-65
2021/12/25 02:19:34;;;;;;;9.40;6.08;;;;;;;3.04;100.00;97422.93;1745695;81;21031;-65
2021/12/25 02:21:12;;;;;;;10.25;6.72;;;;;;;3.07;100.00;97443.88;1738164;81;21000;-65
2021/12/25 02:23:37;;;;;;;9.85;6.20;;;;;;;3.03;100.00;97434.22;1742011;81;21558;-64
2021/12/25 02:26:05;;;;;;;8.00;5.87;;;;;;;3.05;100.00;97429.92;1748076;81;20956;-65
2021/12/25 02:28:31;;;;;;;8.35;5.92;;;;;;;3.10;100.00;97446.00;1753079;80;21036;-64
2021/12/25 02:31:04;;;;;;;8.90;5.75;;;;;;;3.13;100.00;97454.31;1760293;81;21020;-65
2021/12/25 02:33:30;;;;;;;8.83;6.22;;;;;;;3.10;100.00;97458.09;1761676;80;21087;-64
2021/12/25 02:35:57;;;;;;;8.38;6.12;;;;;;;3.09;100.00;97463.20;1761072;81;21530;-64
2021/12/25 02:38:24;;;;;;;;;;;;;;;3.12;100.00;97470.17;1765339;80;21641;-65
2021/12/25 02:40:51;;;;;;;10.18;6.15;;;;;;;3.12;100.00;97474.77;1709283;84;20145;-65
2021/12/25 02:43:18;;;;;;;9.08;5.83;;;;;;;2.98;100.00;97482.08;1753517;80;21130;-65
2021/12/25 02:45:44;;;;;;;9.95;6.20;;;;;;;2.99;100.00;97491.76;1734885;81;20956;-65
2021/12/25 02:48:11;;;;;;;;;;;;;;;3.05;100.00;97490.41;1766077;80;21122;-64
2021/12/25 02:50:38;;;;;;;8.90;6.20;;;;;;;3.07;100.00;97498.98;1706863;82;20428;-65
2021/12/25 02:53:07;;;;;;;10.05;6.10;;;;;;;2.94;100.00;97493.69;1744793;80;21063;-65
2021/12/25 02:55:36;;;;;;;9.48;6.33;;;;;;;2.92;100.00;97489.11;1757920;81;21003;-65
2021/12/25 02:58:03;;;;;;;8.58;5.97;;;;;;;2.96;100.00;97474.84;1732132;81;21039;-65
2021/12/25 03:00:39;;;;;;;9.70;6.12;;;;;;;2.99;100.00;97476.17;1705354;84;21048;-65
2021/12/25 03:03:07;;;;;;;8.95;5.90;;;;;;;2.97;100.00;97489.09;1663795;85;21116;-64
2021/12/25 03:05:36;;;;;;;8.55;5.85;;;;;;;2.97;100.00;97482.38;1707718;84;21139;-64
2021/12/25 03:08:05;;;;;;;8.85;5.65;;;;;;;3.00;100.00;97504.12;1684927;84;21028;-64
2021/12/25 03:10:35;;;;;;;9.98;6.30;;;;;;;3.00;100.00;97510.84;1700822;84;21011;-64
2021/12/25 03:15:46;;;;;;;8.65;5.97;;;;;;;2.94;100.00;97525.94;1725802;81;21000;-64
2021/12/25 03:18:23;;;;;;;8.38;5.53;;;;;;;2.98;100.00;97517.55;1759862;80;21510;-64
2021/12/25 03:20:55;;;;;;;8.10;5.78;;;;;;;2.98;100.00;97528.30;1744084;81;21530;-65
2021/12/25 03:23:23;;;;;;;9.20;5.87;;;;;;;2.93;100.00;97542.59;1755386;80;21052;-64
2021/12/25 03:25:51;;;;;;;9.20;5.62;;;;;;;2.94;100.00;97540.15;1748699;81;20964;-65
2021/12/25 03:28:18;;;;;;;9.90;5.97;;;;;;;2.95;100.00;97549.83;1740737;81;21063;-65
2021/12/25 03:30:45;;;;;;;8.38;5.83;;;;;;;2.96;100.00;97557.36;1717490;82;20987;-65
2021/12/25 03:33:14;;;;;;;9.03;6.60;;;;;;;2.88;100.00;97569.48;1728209;81;21550;-64
2021/12/25 03:35:41;;;;;;;8.85;5.72;;;;;;;2.87;100.00;97568.42;1742710;81;21506;-65
2021/12/25 03:38:11;;;;;;;9.43;5.65;;;;;;;2.89;100.00;97576.47;1760885;80;21066;-64
2021/12/25 03:40:38;;;;;;;10.03;6.28;;;;;;;2.87;100.00;97574.58;1726345;81;20957;-64
2021/12/25 03:43:05;;;;;;;10.48;6.00;;;;;;;2.80;100.00;97599.59;1743196;81;21060;-64
2021/12/25 03:45:33;;;;;;;8.23;5.65;;;;;;;2.75;100.00;97603.66;1743524;81;21497;-65
2021/12/25 03:48:13;;;;;;;8.43;6.45;;;;;;;2.74;100.00;97613.31;1695200;82;21634;-65
2021/12/25 03:53:35;;;;;;;6.90;4.60;;;;;;;2.60;100.00;97617.11;1745009;80;21522;-64
2021/12/25 03:58:36;;;;;;;7.37;5.28;;;;;;;2.62;100.00;97639.69;1735222;80;21050;-64
2021/12/25 04:01:23;;;;;;;7.22;5.25;;;;;;;2.55;100.00;97647.99;1758458;81;21550;-64
2021/12/25 04:03:49;;;;;;;7.25;4.33;;;;;;;2.55;100.00;97672.17;1744151;80;21051;-64
2021/12/25 04:06:11;;;;;;;8.00;5.05;;;;;;;2.58;100.00;97674.88;1738988;81;21121;-64
2021/12/25 04:08:43;;;;;;;7.03;4.10;;;;;;;2.52;100.00;97683.45;1737764;81;21041;-64
2021/12/25 04:11:12;;;;;;;6.83;4.10;;;;;;;2.43;100.00;97687.23;1742494;81;21026;-65
2021/12/25 04:13:34;;;;;;;5.35;3.65;;;;;;;2.36;100.00;97690.73;1748667;80;21047;-65
2021/12/25 04:16:02;;;;;;;5.72;3.52;;;;;;;2.30;100.00;97695.80;1754562;80;21530;-64
2021/12/25 04:18:29;;;;;;;5.65;3.47;;;;;;;2.18;100.00;97698.49;1752996;81;21047;-64
2021/12/25 04:20:55;;;;;;;;;;;;;;;2.11;100.00;97726.94;1750247;81;20999;-64
2021/12/25 04:23:26;;;;;;;4.55;2.75;;;;;;;2.08;100.00;97729.34;1757053;80;20115;-65
2021/12/25 04:25:53;;;;;;;5.28;3.08;;;;;;;1.97;100.00;97732.55;1756612;80;21050;-65
2021/12/25 04:28:34;;;;;;;4.62;2.90;;;;;;;1.88;100.00;97728.75;1742744;82;21079;-65
2021/12/25 04:42:40;;;;;;;4.03;2.60;;;;;;;1.79;100.00;97747.25;1766218;80;21107;-64
2021/12/25 05:03:09;;;;;;;4.42;2.33;;;;;;;1.59;100.00;97813.42;1711847;81;21943;-65
2021/12/25 05:05:38;;;;;;;5.08;2.90;;;;;;;1.62;100.00;97825.78;1749594;82;21086;-65
2021/12/25 05:08:07;;;;;;;5.53;3.33;;;;;;;1.62;100.00;97831.67;1744952;81;21083;-65
2021/12/25 05:10:34;;;;;;;6.00;3.45;;;;;;;1.57;100.00;97846.38;1723724;82;21130;-65
2021/12/25 05:13:01;;;;;;;7.75;3.40;;;;;;;1.55;100.00;97845.31;1740350;81;21066;-65
2021/12/25 05:15:28;;;;;;;6.30;3.80;;;;;;;1.60;100.00;97852.56;1724099;82;21074;-64
2021/12/25 05:17:54;;;;;;;;;;;;;;;1.60;100.00;97861.42;1703043;84;21070;-65
2021/12/25 05:20:24;;;;;;;7.00;4.30;;;;;;;1.56;100.00;97879.66;1707378;84;20110;-65
2021/12/25 05:22:52;;;;;;;6.15;3.67;;;;;;;1.46;100.00;97883.86;1690990;84;21454;-65
2021/12/25 05:25:18;;;;;;;5.97;3.77;;;;;;;1.48;100.00;97873.70;1695555;84;21054;-65
2021/12/25 05:27:47;;;;;;;6.45;3.80;;;;;;;1.48;100.00;97880.41;1689517;84;21045;-64
2021/12/25 05:30:13;;;;;;;6.17;4.00;;;;;;;1.41;100.00;97879.83;1685273;84;21043;-65
2021/12/25 05:32:41;;;;;;;5.90;3.62;;;;;;;1.38;100.00;97883.55;1688258;83;21011;-64
2021/12/25 05:35:26;;;;;;;4.65;2.80;;;;;;;1.39;100.00;97894.53;1691932;84;21106;-66
2021/12/25 05:38:09;;;;;;;4.35;2.70;;;;;;;1.32;100.00;97892.60;1698254;83;21145;-64
2021/12/25 05:40:37;;;;;;;5.37;3.15;;;;;;;1.22;100.00;97909.95;1678974;84;21122;-65
2021/12/25 05:43:04;;;;;;;5.10;3.55;;;;;;;1.22;100.00;97918.80;1680987;84;21035;-65
2021/12/25 05:45:32;;;;;;;4.90;3.42;;;;;;;1.22;100.00;97912.10;1697704;84;21565;-65
2021/12/25 05:48:07;;;;;;;7.33;4.30;;;;;;;1.17;100.00;97931.37;1696927;84;21158;-65
2021/12/25 05:50:38;;;;;;;7.53;4.45;;;;;;;1.14;100.00;97926.48;1652996;84;21512;-65
2021/12/25 05:53:09;;;;;;;6.92;3.90;;;;;;;1.15;100.00;97926.78;1674594;85;21119;-65
2021/12/25 05:55:40;;;;;;;7.97;4.58;;;;;;;1.14;100.00;97939.89;1643094;85;21105;-65
2021/12/25 05:58:09;;;;;;;6.95;4.30;;;;;;;1.08;100.00;97954.31;1691240;84;21677;-65
2021/12/25 06:00:37;;;;;;;7.92;4.42;;;;;;;1.06;100.00;97978.70;1672388;85;21426;-65
2021/12/25 06:03:06;;;;;;;7.37;4.30;;;;;;;1.09;100.00;97985.42;1670786;84;21593;-65
2021/12/25 06:05:35;;;;;;;7.42;4.42;;;;;;;1.04;100.00;97974.64;1664398;86;21094;-66
2021/12/25 06:08:03;;;;;;;7.22;4.25;;;;;;;0.99;100.00;97994.17;1669288;85;21071;-64
2021/12/25 06:10:29;;;;;;;;;;;;;;;1.00;100.00;97999.79;1663467;85;21059;-65
2021/12/25 06:12:58;;;;;;;7.25;4.55;;;;;;;0.99;100.00;98014.27;1680202;84;20432;-65
2021/12/25 06:15:28;;;;;;;7.87;4.70;;;;;;;0.87;100.00;98018.94;1656354;85;21490;-66
2021/12/25 06:17:57;;;;;;;8.55;5.17;;;;;;;0.87;100.00;98019.76;1679475;85;21500;-65
2021/12/25 06:20:29;;;;;;;8.15;5.35;;;;;;;0.93;100.00;98028.65;1671390;84;21091;-65
2021/12/25 06:22:59;;;;;;;10.08;6.05;;;;;;;0.93;100.00;98031.33;1662315;86;21181;-65
2021/12/25 06:25:33;;;;;;;9.18;5.78;;;;;;;0.88;100.00;98029.95;1674722;85;21071;-65
2021/12/25 06:28:20;;;;;;;9.08;5.45;;;;;;;0.89;100.00;98036.38;1604131;89;21159;-65
2021/12/25 06:31:05;;;;;;;8.98;6.20;;;;;;;0.84;100.00;98045.71;1625974;86;21064;-64
2021/12/25 06:33:36;;;;;;;9.08;6.10;;;;;;;0.78;100.00;98047.25;1658917;84;21080;-64
2021/12/25 06:36:10;;;;;;;11.18;6.58;;;;;;;0.74;100.00;98060.33;1684124;83;21625;-64
2021/12/25 06:38:45;;;;;;;12.07;6.53;;;;;;;0.69;100.00;98058.91;1699873;84;21072;-65
2021/12/25 06:41:16;;;;;;;10.13;6.20;;;;;;;0.69;100.00;98059.44;1700159;82;21071;-64
2021/12/25 06:43:43;;;;;;;10.80;6.72;;;;;;;0.64;100.00;98074.91;1650523;86;21989;-65
2021/12/25 06:46:11;;;;;;;10.45;6.80;;;;;;;0.63;100.00;98089.89;1725548;82;21031;-65
2021/12/25 06:48:38;;;;;;;10.72;6.92;;;;;;;0.61;100.00;98095.48;1711164;82;21118;-63
2021/12/25 06:57:30;;;;;;;13.45;7.80;;;;;;;0.63;100.00;98099.27;1816551;79;22955;-65
2021/12/25 06:59:57;;;;;;;11.03;7.42;;;;;;;0.58;100.00;98107.22;1762275;80;21545;-64
2021/12/25 07:02:23;;;;;;;14.00;8.93;;;;;;;0.58;100.00;98104.55;1760772;81;21011;-65
2021/12/25 07:05:08;;;;;;;16.25;9.65;;;;;;;0.60;100.00;98107.28;1760961;81;21526;-65
2021/12/25 07:07:53;;;;;;;14.53;10.20;;;;;;;0.64;100.00;98122.32;1761275;81;21031;-64
2021/12/25 07:10:27;;;;;;;15.68;9.70;;;;;;;0.70;100.00;98131.52;1758072;81;21050;-64
2021/12/25 07:13:17;;;;;;;14.73;9.45;;;;;;;0.79;100.00;98135.38;1761301;80;21333;-64
2021/12/25 07:15:44;;;;;;;13.78;9.33;;;;;;;0.85;100.00;98138.95;1756612;81;21093;-64
2021/12/25 07:18:22;;;;;;;12.90;9.15;;;;;;;0.89;100.00;98127.98;1760212;81;21063;-65
2021/12/25 07:20:56;;;;;;;13.50;8.78;;;;;;;0.90;100.00;98141.67;1703823;81;21050;-65
2021/12/25 07:23:39;;;;;;;11.73;8.23;;;;;;;0.89;100.00;98157.46;1644589;86;21127;-64
2021/12/25 07:26:07;;;;;;;12.00;8.63;;;;;;;0.85;100.00;98159.04;1688687;84;21075;-64
2021/12/25 07:28:45;;;;;;;12.00;8.60;;;;;;;0.84;100.00;98158.75;1711751;83;21047;-64
2021/12/25 07:31:12;;;;;;;12.82;8.15;;;;;;;0.85;100.00;98171.09;1715723;83;21076;-65
2021/12/25 07:33:40;;;;;;;10.72;7.33;;;;;;;0.88;100.00;98178.11;1683847;83;21040;-64
2021/12/25 07:36:09;;;;;;;11.00;6.92;;;;;;;0.91;100.00;98191.53;1727819;83;21542;-65
2021/12/25 07:38:35;;;;;;;11.25;7.33;;;;;;;0.91;100.00;98190.19;1701736;83;20995;-64
2021/12/25 07:41:02;;;;;;;11.60;7.55;;;;;;;0.92;100.00;98198.52;1717915;83;21030;-65
2021/12/25 07:43:28;;;;;;;13.48;8.10;;;;;;;0.93;100.00;98206.30;1698931;84;21053;-65
2021/12/25 07:46:02;;;;;;;12.78;7.97;;;;;;;0.96;100.00;98214.36;1695975;84;21046;-65
2021/12/25 07:48:29;;;;;;;12.85;8.18;;;;;;;0.97;100.00;98221.34;1707327;84;21062;-64
2021/12/25 07:50:55;;;;;;;11.85;7.97;;;;;;;0.96;100.00;98217.03;1692314;84;21042;-65
2021/12/25 07:53:22;;;;;;;12.88;8.00;;;;;;;0.96;100.00;98233.93;1692968;82;21062;-65
2021/12/25 07:55:48;;;;;;;10.75;7.10;;;;;;;0.95;100.00;98234.19;1689833;84;21096;-65
2021/12/25 07:58:16;;;;;;;12.53;7.92;;;;;;;0.94;100.00;98231.22;1732886;82;21087;-64
2021/12/25 08:00:43;;;;;;;12.05;7.78;;;;;;;0.92;100.00;98241.39;1742330;82;21453;-65
2021/12/25 08:03:09;;;;;;;12.95;7.90;;;;;;;0.91;100.00;98246.45;1747115;82;21049;-65
2021/12/25 08:05:36;;;;;;;;;;;;;;;0.89;100.00;98250.70;1695546;83;21009;-65
2021/12/25 08:08:03;;;;;;;10.85;7.22;;;;;;;0.86;100.00;98254.41;1734875;82;20114;-65
2021/12/25 08:10:31;;;;;;;12.82;7.83;;;;;;;0.81;100.00;98252.48;1744515;82;20980;-65
2021/12/25 08:12:59;;;;;;;11.30;7.58;;;;;;;0.81;100.00;98248.46;1733594;82;21142;-65
2021/12/25 08:15:28;;;;;;;12.23;7.35;;;;;;;0.82;100.00;98257.28;1736032;82;21019;-65
2021/12/25 08:17:57;;;;;;;9.95;6.60;;;;;;;0.84;100.00;98268.06;1746760;81;21465;-65
2021/12/25 08:20:30;;;;;;;13.15;7.53;;;;;;;0.83;100.00;98269.63;1722334;81;20980;-65
2021/12/25 08:23:15;;;;;;;12.07;7.53;;;;;;;0.82;100.00;98274.17;1678658;85;21105;-65
2021/12/25 08:25:49;;;;;;;11.40;7.00;;;;;;;0.84;100.00;98276.63;1714502;82;21043;-64
2021/12/25 08:28:34;;;;;;;11.45;7.08;;;;;;;0.83;100.00;98280.34;1747949;81;21530;-65
2021/12/25 08:31:18;;;;;;;13.98;8.28;;;;;;;0.84;100.00;98286.00;1738853;82;21079;-65
2021/12/25 08:34:03;;;;;;;10.65;7.15;;;;;;;0.82;100.00;98296.94;1683729;84;21105;-65
2021/12/25 08:36:48;;;;;;;10.53;7.33;;;;;;;0.81;100.00;98291.84;1733345;82;21075;-65
2021/12/25 08:39:14;;;;;;;12.33;7.50;;;;;;;0.78;100.00;98291.00;1745210;82;21095;-65
2021/12/25 08:41:40;;;;;;;12.60;7.60;;;;;;;0.80;100.00;98290.22;1740550;82;21047;-65
2021/12/25 08:44:30;;;;;;;12.80;7.72;;;;;;;0.76;100.00;98295.25;1723969;82;21039;-65
2021/12/25 08:46:54;;;;;;;12.40;7.90;;;;;;;0.77;100.00;98297.41;1712123;82;21561;-63
2021/12/25 08:49:16;;;;;;;11.97;7.60;;;;;;;0.82;100.00;98294.27;1716673;82;21139;-65
2021/12/25 08:51:41;;;;;;;12.30;7.22;;;;;;;0.86;100.00;98299.95;1729029;82;21537;-65
2021/12/25 08:54:07;;;;;;;14.15;8.05;;;;;;;0.90;100.00;98309.13;1730908;81;21055;-65
2021/12/25 08:56:33;;;;;;;14.75;7.97;;;;;;;0.89;100.00;98312.33;1743994;82;21557;-65
2021/12/25 08:59:00;;;;;;;12.90;8.10;;;;;;;0.90;100.00;98309.13;1732987;81;21063;-65
2021/12/25 09:01:27;;;;;;;11.40;7.58;;;;;;;0.93;100.00;98306.77;1714734;82;21075;-64
2021/12/25 09:03:55;;;;;;;13.43;8.35;;;;;;;0.97;100.00;98309.77;1739079;82;21043;-64
2021/12/25 09:06:21;;;;;;;12.90;7.62;;;;;;;1.03;100.00;98306.66;1730416;82;21043;-63
2021/12/25 09:08:47;;;;;;;13.20;8.00;;;;;;;1.05;100.00;98317.41;1729119;82;21656;-62
2021/12/25 09:11:14;;;;;;;11.68;7.30;;;;;;;1.05;100.00;98321.42;1738303;82;21082;-64
2021/12/25 09:13:40;;;;;;;9.80;6.12;;;;;;;1.05;100.00;98324.11;1737888;82;21514;-64
2021/12/25 09:16:07;;;;;;;6.97;4.70;;;;;;;0.99;100.00;98333.13;1731104;82;21059;-69
2021/12/25 09:18:33;;;;;;;;;;;;;;;0.92;100.00;98348.56;1742092;81;21095;-63
2021/12/25 09:21:00;;;;;;;7.22;4.37;;;;;;;0.83;100.00;98352.67;1747456;82;20130;-64
2021/12/25 09:23:26;;;;;;;7.60;4.20;;;;;;;0.62;100.00;98352.05;1723653;82;21637;-65
2021/12/25 09:25:52;;;;;;;7.12;3.98;;;;;;;0.50;100.00;98356.11;1730705;80;21030;-64
2021/12/25 09:28:19;;;;;;;6.70;3.83;;;;;;;0.40;100.00;98367.45;1732768;82;21110;-63
2021/12/25 09:30:46;;;;;;;;;;;;;;;0.34;100.00;98370.28;1718813;82;21075;-64
2021/12/25 09:33:13;;;;;;;6.65;3.77;;;;;;;0.26;100.00;98373.33;1747255;82;20095;-63
2021/12/25 09:35:40;;;;;;;7.28;3.85;;;;;;;0.16;100.00;98369.13;1743724;82;21075;-64
2021/12/25 09:38:06;;;;;;;6.45;3.52;;;;;;;0.10;100.00;98364.21;1720367;82;21083;-63
2021/12/25 09:40:33;;;;;;;6.70;3.55;;;;;;;0.10;100.00;98368.75;1682343;84;21873;-64
2021/12/25 09:42:59;;;;;;;6.33;3.67;;;;;;;0.08;100.00;98372.98;1735150;82;21047;-64
2021/12/25 09:45:25;;;;;;;7.05;3.70;;;;;;;0.13;100.00;98376.30;1719284;82;21031;-64
2021/12/25 09:47:53;;;;;;;5.95;3.42;;;;;;;0.14;100.00;98368.56;1722481;82;21486;-63
2021/12/25 09:50:19;;;;;;;6.37;3.33;;;;;;;0.09;100.00;98368.45;1747496;82;21062;-64
2021/12/25 09:52:45;;;;;;;5.78;3.40;;;;;;;0.08;100.00;98376.18;1744970;82;21071;-63
2021/12/25 09:55:13;;;;;;;;;;;;;;;0.06;100.00;98386.32;1747696;82;21046;-64
2021/12/25 09:57:39;;;;;;;4.10;2.33;;;;;;;0.02;100.00;98374.46;1745027;82;20135;-65
2021/12/25 10:00:21;;;;;;;4.45;2.12;;;;;;;-0.09;100.00;98381.47;1745552;81;20979;-63
2021/12/25 10:02:53;;;;;;;4.85;2.30;;;;;;;-0.19;100.00;98376.73;1724090;82;21027;-62
2021/12/25 10:05:32;;;;;;;4.22;2.22;;;;;;;-0.24;100.00;98386.48;1712390;82;21024;-68
2021/12/25 10:08:52;;;;;;;5.12;2.40;;;;;;;-0.31;97.91;98387.95;1791284;79;22192;-63
2021/12/25 10:11:19;;;;;;;5.25;2.47;;;;;;;-0.38;96.13;98391.80;1747448;82;21046;-63
2021/12/25 10:13:46;;;;;;;4.55;2.00;;;;;;;-0.39;96.35;98395.53;1743372;82;21557;-63
2021/12/25 10:16:24;;;;;;;6.30;2.08;;;;;;;-0.47;92.62;98404.72;1706889;83;21027;-62
2021/12/25 10:18:53;;;;;;;4.53;1.75;;;;;;;-0.53;87.77;98395.75;1695904;84;21149;-62
2021/12/25 10:21:24;;;;;;;4.10;1.80;;;;;;;-0.54;88.78;98395.48;1684985;84;21006;-61
2021/12/25 10:24:25;;;;;;;4.42;1.87;;;;;;;-0.53;85.67;98409.64;1692805;84;21086;-63
2021/12/25 10:26:47;;;;;;;3.58;1.60;;;;;;;-0.53;83.67;98398.95;1682783;85;21031;-63
2021/12/25 10:29:26;;;;;;;3.65;1.80;;;;;;;-0.46;88.25;98399.64;1700061;82;21125;-63
2021/12/25 10:31:58;;;;;;;4.37;1.98;;;;;;;-0.38;87.20;98414.52;1698679;84;21098;-64
2021/12/25 10:34:30;;;;;;;4.00;1.70;;;;;;;-0.28;85.01;98414.22;1709302;84;21066;-63
2021/12/25 10:37:12;;;;;;;3.20;1.52;;;;;;;-0.17;81.46;98419.27;1698902;84;21098;-64
2021/12/25 10:39:39;;;;;;;3.65;1.62;;;;;;;-0.11;77.78;98429.84;1705132;84;21537;-64
2021/12/25 10:42:19;;;;;;;4.90;2.05;;;;;;;-0.11;76.43;98430.39;1712728;84;21042;-64
2021/12/25 10:44:50;;;;;;;4.60;2.10;;;;;;;-0.10;76.31;98432.81;1702508;84;21053;-64
2021/12/25 10:47:22;;;;;;;4.33;2.10;;;;;;;-0.07;75.51;98430.19;1690642;84;21082;-63
2021/12/25 10:49:57;;;;;;;4.62;2.27;;;;;;;0.01;74.52;98435.18;1705402;84;21058;-64
2021/12/25 10:52:41;;;;;;;4.50;2.52;;;;;;;-0.01;72.13;98421.23;1688433;84;21097;-64
2021/12/25 10:55:21;;;;;;;4.85;2.40;;;;;;;-0.07;71.47;98419.48;1690971;84;21018;-64
2021/12/25 10:57:53;;;;;;;4.87;2.70;;;;;;;-0.15;72.91;98424.70;1699464;84;21050;-63
2021/12/25 11:00:27;;;;;;;4.87;2.45;;;;;;;-0.25;73.31;98429.80;1699614;84;21027;-64
2021/12/25 11:03:00;;;;;;;4.47;1.82;;;;;;;-0.34;74.38;98431.73;1700782;84;21058;-64
2021/12/25 11:05:39;;;;;;;3.37;1.60;;;;;;;-0.41;69.75;98449.23;1709862;84;21058;-62
2021/12/25 11:08:13;;;;;;;3.00;1.37;;;;;;;-0.49;65.45;98446.89;1693373;83;21146;-62
2021/12/25 11:10:59;;;;;;;3.02;1.30;;;;;;;-0.56;60.79;98453.70;1688101;84;21046;-62
2021/12/25 11:13:47;;;;;;;2.25;1.10;;;;;;;-0.59;58.73;98460.02;1689487;84;21605;-62
2021/12/25 11:16:32;;;;;;;2.42;1.07;;;;;;;-0.63;57.00;98460.19;1690842;84;21067;-65
2021/12/25 11:19:12;;;;;;;3.22;1.30;;;;;;;-0.69;54.65;98463.27;1683265;84;21138;-64
2021/12/25 11:21:54;;;;;;;3.05;1.20;;;;;;;-0.75;54.52;98473.56;1685088;84;21604;-63
2021/12/25 11:24:37;;;;;;;2.92;1.20;;;;;;;-0.80;54.80;98466.73;1699065;84;21063;-64
2021/12/25 11:27:04;;;;;;;2.90;1.15;;;;;;;-0.83;55.82;98473.88;1698435;84;21034;-64
2021/12/25 11:29:33;;;;;;;2.10;1.10;;;;;;;-0.83;55.37;98481.90;1680592;84;21067;-64
2021/12/25 11:32:00;;;;;;;3.08;1.20;;;;;;;-0.85;54.55;98484.52;1671361;86;21525;-64
2021/12/25 11:34:26;;;;;;;;;;;;;;;-0.88;55.94;98493.78;1673701;86;21094;-64
2021/12/25 11:36:54;;;;;;;2.42;1.17;;;;;;;-0.88;55.86;98496.97;1671078;86;20526;-64
2021/12/25 11:39:23;;;;;;;3.10;1.47;;;;;;;-0.99;56.18;98493.77;1688144;84;21075;-64
2021/12/25 11:41:54;;;;;;;3.33;1.27;;;;;;;-1.03;57.08;98495.53;1697254;84;21019;-64
2021/12/25 11:44:42;;;;;;;2.70;1.30;;;;;;;-1.02;57.20;98503.03;1698962;84;21051;-64
2021/12/25 11:47:10;;;;;;;3.55;1.77;;;;;;;-0.95;58.83;98522.96;1699140;84;21027;-64
2021/12/25 11:49:54;;;;;;;3.42;1.50;;;;;;;-0.89;59.99;98514.87;1699064;84;21138;-64
2021/12/25 11:52:25;;;;;;;4.47;2.05;;;;;;;-0.81;60.16;98521.21;1699224;84;21051;-64
2021/12/25 11:55:16;;;;;;;4.05;2.00;;;;;;;-0.77;58.85;98521.57;1690687;84;21067;-63
2021/12/25 11:58:20;;;;;;;4.60;2.45;;;;;;;-0.75;58.82;98532.86;1666966;86;21023;-65
2021/12/25 12:00:42;;;;;;;5.60;2.30;;;;;;;-0.80;59.94;98544.75;1682201;84;21071;-64
2021/12/25 12:03:37;;;;;;;4.83;2.20;;;;;;;-0.87;59.99;98534.16;1698490;84;21143;-64
2021/12/25 12:06:04;;;;;;;5.33;2.00;;;;;;;-0.95;60.58;98547.83;1615107;86;21633;-65
2021/12/25 12:08:32;;;;;;;;;;;;;;;-1.03;61.44;98553.51;1656318;85;21089;-64
2021/12/25 12:11:03;;;;;;;3.55;1.55;;;;;;;-1.09;62.73;98567.23;1641217;84;20421;-64
2021/12/25 12:13:48;;;;;;;5.10;2.17;;;;;;;-1.24;64.45;98544.64;1723980;83;21074;-64
2021/12/25 12:16:46;;;;;;;4.60;2.27;;;;;;;-1.24;65.78;98542.77;1660404;84;21038;-64
2021/12/25 12:19:40;;;;;;;6.72;2.95;;;;;;;-1.24;67.55;98547.31;1688246;83;21522;-64
2021/12/25 12:25:16;;;;;;;10.40;5.47;;;;;;;-1.24;70.48;98569.47;1695771;84;21093;-64
2021/12/25 12:27:41;;;;;;;13.78;6.47;;;;;;;-1.22;72.23;98571.41;1650347;86;21073;-63
2021/12/25 12:30:12;;;;;;;12.35;6.25;;;;;;;-1.21;73.10;98575.72;1695819;84;21133;-65
2021/12/25 12:32:45;;;;;;;12.23;6.35;;;;;;;-1.19;72.94;98580.81;1696002;84;21070;-64
2021/12/25 12:35:34;;;;;;;11.33;6.03;;;;;;;-1.24;73.55;98564.67;1702011;83;21590;-64
2021/12/25 12:38:47;;;;;;;12.82;6.55;;;;;;;-1.28;74.31;98579.50;1702420;84;21149;-64
2021/12/25 12:41:38;;;;;;;19.48;8.70;;;;;;;-1.34;75.87;98585.71;1724709;83;21077;-65
2021/12/25 12:44:10;;;;;;;20.32;8.93;;;;;;;-1.40;78.94;98596.78;1695565;84;21109;-65
2021/12/25 12:46:54;;;;;;;17.48;8.80;;;;;;;-1.42;81.63;98594.05;1725231;83;21060;-64
2021/12/25 12:49:26;;;;;;;24.25;11.50;;;;;;;-1.47;83.52;98595.21;1689592;84;21118;-65
2021/12/25 12:52:20;;;;;;;25.25;11.80;;;;;;;-1.49;85.27;98611.98;1724938;83;21376;-66
2021/12/25 12:55:00;;;;;;;25.60;11.63;;;;;;;-1.54;86.32;98613.46;1724724;83;21081;-66
2021/12/25 12:57:41;;;;;;;24.07;11.60;;;;;;;-1.56;86.82;98621.40;1725039;83;21066;-65
2021/12/25 13:00:19;;;;;;;21.27;9.50;;;;;;;-1.59;87.03;98616.48;1715254;83;21050;-65
2021/12/25 13:02:52;;;;;;;22.05;10.63;;;;;;;-1.63;87.05;98621.98;1695678;84;21567;-64